sensor_id;sensor_type;location;lat;lon;timestamp;P1;durP1;ratioP1;P2;durP2;ratioP2
19593;SDS011;9944;48.240;16.478;2022-07-29T00:00:10;4.28;;;2.28;;
19593;SDS011;9944;48.240;16.478;2022-07-29T00:04:25;4.15;;;2.53;;
19593;SDS011;9944;48.240;16.478;2022-07-29T00:08:28;3.42;;;2.67;;
19593;SDS011;9944;48.240;16.478;2022-07-29T00:12:49;2.90;;;2.40;;
19593;SDS011;9944;48.240;16.478;2022-07-29T00:17:14;3.22;;;2.40;;
19593;SDS011;9944;48.240;16.478;2022-07-29T00:21:34;2.15;;;1.95;;
19593;SDS011;9944;48.240;16.478;2022-07-29T00:25:48;4.15;;;2.53;;
19593;SDS011;9944;48.240;16.478;2022-07-29T00:30:19;3.35;;;2.38;;
19593;SDS011;9944;48.240;16.478;2022-07-29T00:34:36;3.80;;;2.28;;
19593;SDS011;9944;48.240;16.478;2022-07-29T00:39:04;3.20;;;2.50;;
19593;SDS011;9944;48.240;16.478;2022-07-29T00:43:25;2.83;;;2.47;;
19593;SDS011;9944;48.240;16.478;2022-07-29T00:47:41;2.58;;;2.38;;
19593;SDS011;9944;48.240;16.478;2022-07-29T00:52:04;3.10;;;2.80;;
19593;SDS011;9944;48.240;16.478;2022-07-29T00:56:39;2.70;;;2.40;;
19593;SDS011;9944;48.240;16.478;2022-07-29T01:00:59;3.65;;;2.50;;
19593;SDS011;9944;48.240;16.478;2022-07-29T01:05:03;4.50;;;2.42;;
19593;SDS011;9944;48.240;16.478;2022-07-29T01:09:18;2.88;;;2.28;;
19593;SDS011;9944;48.240;16.478;2022-07-29T01:13:48;2.75;;;2.40;;
19593;SDS011;9944;48.240;16.478;2022-07-29T01:18:16;3.45;;;2.70;;
19593;SDS011;9944;48.240;16.478;2022-07-29T01:22:46;2.90;;;2.60;;
19593;SDS011;9944;48.240;16.478;2022-07-29T01:27:18;5.85;;;2.80;;
19593;SDS011;9944;48.240;16.478;2022-07-29T01:32:01;3.17;;;2.50;;
19593;SDS011;9944;48.240;16.478;2022-07-29T01:36:35;2.67;;;2.40;;
19593;SDS011;9944;48.240;16.478;2022-07-29T01:40:49;2.97;;;2.47;;
19593;SDS011;9944;48.240;16.478;2022-07-29T01:45:08;2.33;;;2.05;;
19593;SDS011;9944;48.240;16.478;2022-07-29T01:49:25;4.25;;;2.50;;
19593;SDS011;9944;48.240;16.478;2022-07-29T01:53:36;2.97;;;2.55;;
19593;SDS011;9944;48.240;16.478;2022-07-29T01:57:46;3.83;;;2.70;;
19593;SDS011;9944;48.240;16.478;2022-07-29T02:01:52;3.80;;;2.42;;
19593;SDS011;9944;48.240;16.478;2022-07-29T02:06:08;2.90;;;2.53;;
19593;SDS011;9944;48.240;16.478;2022-07-29T02:10:26;4.70;;;2.83;;
19593;SDS011;9944;48.240;16.478;2022-07-29T02:14:45;3.25;;;2.60;;
19593;SDS011;9944;48.240;16.478;2022-07-29T02:19:02;3.17;;;2.60;;
19593;SDS011;9944;48.240;16.478;2022-07-29T02:23:26;3.60;;;2.78;;
19593;SDS011;9944;48.240;16.478;2022-07-29T02:27:30;2.90;;;2.58;;
19593;SDS011;9944;48.240;16.478;2022-07-29T02:31:47;4.32;;;2.92;;
19593;SDS011;9944;48.240;16.478;2022-07-29T02:35:57;4.20;;;3.03;;
19593;SDS011;9944;48.240;16.478;2022-07-29T02:40:22;3.88;;;2.40;;
19593;SDS011;9944;48.240;16.478;2022-07-29T02:44:34;5.15;;;3.08;;
19593;SDS011;9944;48.240;16.478;2022-07-29T02:48:58;3.35;;;2.90;;
19593;SDS011;9944;48.240;16.478;2022-07-29T02:53:12;3.30;;;2.70;;
19593;SDS011;9944;48.240;16.478;2022-07-29T02:57:42;4.32;;;3.00;;
19593;SDS011;9944;48.240;16.478;2022-07-29T03:02:05;3.28;;;2.97;;
19593;SDS011;9944;48.240;16.478;2022-07-29T03:06:17;4.13;;;2.70;;
19593;SDS011;9944;48.240;16.478;2022-07-29T03:10:41;3.28;;;2.53;;
19593;SDS011;9944;48.240;16.478;2022-07-29T03:14:51;3.67;;;2.90;;
19593;SDS011;9944;48.240;16.478;2022-07-29T03:18:57;3.85;;;3.05;;
19593;SDS011;9944;48.240;16.478;2022-07-29T03:23:01;3.10;;;2.60;;
19593;SDS011;9944;48.240;16.478;2022-07-29T03:27:06;3.75;;;2.95;;
19593;SDS011;9944;48.240;16.478;2022-07-29T03:31:11;3.58;;;2.42;;
19593;SDS011;9944;48.240;16.478;2022-07-29T03:35:15;4.30;;;3.10;;
19593;SDS011;9944;48.240;16.478;2022-07-29T03:39:20;5.60;;;3.17;;
19593;SDS011;9944;48.240;16.478;2022-07-29T03:43:28;3.72;;;2.80;;
19593;SDS011;9944;48.240;16.478;2022-07-29T03:47:39;3.20;;;2.75;;
19593;SDS011;9944;48.240;16.478;2022-07-29T03:51:52;3.22;;;2.92;;
19593;SDS011;9944;48.240;16.478;2022-07-29T03:55:57;3.08;;;2.78;;
19593;SDS011;9944;48.240;16.478;2022-07-29T04:00:09;3.75;;;3.10;;
19593;SDS011;9944;48.240;16.478;2022-07-29T04:04:17;4.85;;;4.05;;
19593;SDS011;9944;48.240;16.478;2022-07-29T04:08:30;3.30;;;2.90;;
19593;SDS011;9944;48.240;16.478;2022-07-29T04:12:38;5.13;;;3.40;;
19593;SDS011;9944;48.240;16.478;2022-07-29T04:16:48;3.90;;;3.30;;
19593;SDS011;9944;48.240;16.478;2022-07-29T04:26:03;4.63;;;3.20;;
19593;SDS011;9944;48.240;16.478;2022-07-29T04:30:28;3.75;;;3.28;;
19593;SDS011;9944;48.240;16.478;2022-07-29T04:34:36;4.15;;;3.15;;
19593;SDS011;9944;48.240;16.478;2022-07-29T04:38:47;6.57;;;3.15;;
19593;SDS011;9944;48.240;16.478;2022-07-29T04:42:57;5.32;;;3.45;;
19593;SDS011;9944;48.240;16.478;2022-07-29T04:47:09;4.35;;;3.33;;
19593;SDS011;9944;48.240;16.478;2022-07-29T04:51:17;4.32;;;3.45;;
19593;SDS011;9944;48.240;16.478;2022-07-29T04:55:36;5.15;;;3.25;;
19593;SDS011;9944;48.240;16.478;2022-07-29T04:59:46;6.22;;;3.40;;
19593;SDS011;9944;48.240;16.478;2022-07-29T05:08:42;4.35;;;3.42;;
19593;SDS011;9944;48.240;16.478;2022-07-29T05:13:06;5.00;;;3.45;;
19593;SDS011;9944;48.240;16.478;2022-07-29T05:17:20;5.30;;;3.38;;
19593;SDS011;9944;48.240;16.478;2022-07-29T05:21:32;5.22;;;3.50;;
19593;SDS011;9944;48.240;16.478;2022-07-29T05:25:44;4.65;;;3.63;;
19593;SDS011;9944;48.240;16.478;2022-07-29T05:30:26;7.15;;;3.38;;
19593;SDS011;9944;48.240;16.478;2022-07-29T05:34:39;6.35;;;3.80;;
19593;SDS011;9944;48.240;16.478;2022-07-29T05:38:52;5.47;;;3.40;;
19593;SDS011;9944;48.240;16.478;2022-07-29T05:43:03;5.70;;;3.63;;
19593;SDS011;9944;48.240;16.478;2022-07-29T05:52:18;4.25;;;3.22;;
19593;SDS011;9944;48.240;16.478;2022-07-29T05:56:30;3.42;;;2.97;;
19593;SDS011;9944;48.240;16.478;2022-07-29T06:00:35;4.80;;;3.47;;
19593;SDS011;9944;48.240;16.478;2022-07-29T06:04:52;4.20;;;3.30;;
19593;SDS011;9944;48.240;16.478;2022-07-29T06:09:07;4.43;;;3.25;;
19593;SDS011;9944;48.240;16.478;2022-07-29T06:13:13;3.35;;;2.92;;
19593;SDS011;9944;48.240;16.478;2022-07-29T06:17:23;4.07;;;2.90;;
19593;SDS011;9944;48.240;16.478;2022-07-29T06:22:04;7.32;;;3.38;;
19593;SDS011;9944;48.240;16.478;2022-07-29T06:26:21;4.78;;;3.33;;
19593;SDS011;9944;48.240;16.478;2022-07-29T06:30:32;5.05;;;3.15;;
19593;SDS011;9944;48.240;16.478;2022-07-29T06:34:38;5.07;;;2.95;;
19593;SDS011;9944;48.240;16.478;2022-07-29T06:38:43;4.72;;;3.22;;
19593;SDS011;9944;48.240;16.478;2022-07-29T06:42:54;5.10;;;3.17;;
19593;SDS011;9944;48.240;16.478;2022-07-29T06:46:57;3.35;;;2.88;;
19593;SDS011;9944;48.240;16.478;2022-07-29T06:51:01;3.17;;;2.78;;
19593;SDS011;9944;48.240;16.478;2022-07-29T06:55:05;3.42;;;3.13;;
19593;SDS011;9944;48.240;16.478;2022-07-29T06:59:11;4.45;;;3.30;;
19593;SDS011;9944;48.240;16.478;2022-07-29T07:03:15;3.85;;;3.42;;
19593;SDS011;9944;48.240;16.478;2022-07-29T07:07:19;6.47;;;3.22;;
19593;SDS011;9944;48.240;16.478;2022-07-29T07:11:22;26.10;;;4.18;;
19593;SDS011;9944;48.240;16.478;2022-07-29T07:15:27;3.35;;;3.05;;
19593;SDS011;9944;48.240;16.478;2022-07-29T07:19:41;4.07;;;2.92;;
19593;SDS011;9944;48.240;16.478;2022-07-29T07:23:44;3.85;;;3.45;;
19593;SDS011;9944;48.240;16.478;2022-07-29T07:27:54;5.28;;;3.00;;
19593;SDS011;9944;48.240;16.478;2022-07-29T07:32:06;3.58;;;3.20;;
19593;SDS011;9944;48.240;16.478;2022-07-29T07:41:13;3.47;;;3.15;;
19593;SDS011;9944;48.240;16.478;2022-07-29T07:45:17;4.00;;;3.22;;
19593;SDS011;9944;48.240;16.478;2022-07-29T07:49:23;4.10;;;3.00;;
19593;SDS011;9944;48.240;16.478;2022-07-29T07:53:26;4.35;;;3.17;;
19593;SDS011;9944;48.240;16.478;2022-07-29T07:57:31;5.03;;;3.67;;
19593;SDS011;9944;48.240;16.478;2022-07-29T08:01:34;4.15;;;3.45;;
19593;SDS011;9944;48.240;16.478;2022-07-29T08:05:58;3.78;;;2.90;;
19593;SDS011;9944;48.240;16.478;2022-07-29T08:10:02;3.33;;;2.90;;
19593;SDS011;9944;48.240;16.478;2022-07-29T08:14:06;3.92;;;3.53;;
19593;SDS011;9944;48.240;16.478;2022-07-29T08:18:14;4.30;;;3.60;;
19593;SDS011;9944;48.240;16.478;2022-07-29T08:22:19;3.60;;;3.30;;
19593;SDS011;9944;48.240;16.478;2022-07-29T08:26:22;5.72;;;3.72;;
19593;SDS011;9944;48.240;16.478;2022-07-29T08:30:26;4.15;;;3.50;;
19593;SDS011;9944;48.240;16.478;2022-07-29T08:34:29;4.22;;;3.33;;
19593;SDS011;9944;48.240;16.478;2022-07-29T08:38:34;4.43;;;3.55;;
19593;SDS011;9944;48.240;16.478;2022-07-29T08:42:38;3.60;;;3.22;;
19593;SDS011;9944;48.240;16.478;2022-07-29T08:46:41;5.93;;;3.45;;
19593;SDS011;9944;48.240;16.478;2022-07-29T08:50:45;4.03;;;3.30;;
19593;SDS011;9944;48.240;16.478;2022-07-29T08:54:51;4.65;;;3.50;;
19593;SDS011;9944;48.240;16.478;2022-07-29T08:58:56;4.78;;;3.40;;
19593;SDS011;9944;48.240;16.478;2022-07-29T09:03:05;3.85;;;3.25;;
19593;SDS011;9944;48.240;16.478;2022-07-29T09:07:10;6.03;;;3.25;;
19593;SDS011;9944;48.240;16.478;2022-07-29T09:11:19;6.18;;;3.28;;
19593;SDS011;9944;48.240;16.478;2022-07-29T09:15:23;5.05;;;3.05;;
19593;SDS011;9944;48.240;16.478;2022-07-29T09:19:26;4.18;;;3.08;;
19593;SDS011;9944;48.240;16.478;2022-07-29T09:23:31;4.28;;;3.63;;
19593;SDS011;9944;48.240;16.478;2022-07-29T09:27:36;6.25;;;3.58;;
19593;SDS011;9944;48.240;16.478;2022-07-29T09:31:41;3.40;;;3.08;;
19593;SDS011;9944;48.240;16.478;2022-07-29T09:35:45;4.30;;;3.42;;
19593;SDS011;9944;48.240;16.478;2022-07-29T09:39:57;4.22;;;3.05;;
19593;SDS011;9944;48.240;16.478;2022-07-29T09:44:02;3.65;;;3.35;;
19593;SDS011;9944;48.240;16.478;2022-07-29T09:48:13;4.47;;;3.20;;
19593;SDS011;9944;48.240;16.478;2022-07-29T09:52:18;4.00;;;3.60;;
19593;SDS011;9944;48.240;16.478;2022-07-29T09:56:23;3.47;;;3.17;;
19593;SDS011;9944;48.240;16.478;2022-07-29T10:00:43;3.63;;;3.20;;
19593;SDS011;9944;48.240;16.478;2022-07-29T10:04:47;3.53;;;3.20;;
19593;SDS011;9944;48.240;16.478;2022-07-29T10:08:50;3.58;;;2.72;;
19593;SDS011;9944;48.240;16.478;2022-07-29T10:12:54;3.13;;;2.83;;
19593;SDS011;9944;48.240;16.478;2022-07-29T10:17:09;3.40;;;3.00;;
19593;SDS011;9944;48.240;16.478;2022-07-29T10:21:13;2.85;;;2.60;;
19593;SDS011;9944;48.240;16.478;2022-07-29T10:25:36;3.67;;;2.67;;
19593;SDS011;9944;48.240;16.478;2022-07-29T10:29:39;3.58;;;2.63;;
19593;SDS011;9944;48.240;16.478;2022-07-29T10:33:47;3.30;;;3.00;;
19593;SDS011;9944;48.240;16.478;2022-07-29T10:38:09;4.15;;;3.15;;
19593;SDS011;9944;48.240;16.478;2022-07-29T10:42:25;3.60;;;2.88;;
19593;SDS011;9944;48.240;16.478;2022-07-29T10:46:35;2.95;;;2.70;;
19593;SDS011;9944;48.240;16.478;2022-07-29T10:55:04;4.03;;;3.00;;
19593;SDS011;9944;48.240;16.478;2022-07-29T10:59:24;3.13;;;2.83;;
19593;SDS011;9944;48.240;16.478;2022-07-29T11:03:43;2.88;;;2.63;;
19593;SDS011;9944;48.240;16.478;2022-07-29T11:12:45;3.22;;;2.90;;
19593;SDS011;9944;48.240;16.478;2022-07-29T11:16:59;3.50;;;2.88;;
19593;SDS011;9944;48.240;16.478;2022-07-29T11:21:07;4.78;;;3.10;;
19593;SDS011;9944;48.240;16.478;2022-07-29T11:26:16;3.95;;;2.85;;
19593;SDS011;9944;48.240;16.478;2022-07-29T11:30:48;2.97;;;2.53;;
19593;SDS011;9944;48.240;16.478;2022-07-29T11:35:15;3.20;;;2.90;;
19593;SDS011;9944;48.240;16.478;2022-07-29T11:39:38;3.10;;;2.80;;
19593;SDS011;9944;48.240;16.478;2022-07-29T11:43:48;9.20;;;3.03;;
19593;SDS011;9944;48.240;16.478;2022-07-29T11:47:55;3.05;;;2.75;;
19593;SDS011;9944;48.240;16.478;2022-07-29T11:52:20;4.03;;;2.90;;
19593;SDS011;9944;48.240;16.478;2022-07-29T11:56:24;3.33;;;2.85;;
19593;SDS011;9944;48.240;16.478;2022-07-29T12:00:37;3.08;;;2.83;;
19593;SDS011;9944;48.240;16.478;2022-07-29T12:04:48;3.47;;;2.97;;
19593;SDS011;9944;48.240;16.478;2022-07-29T12:08:52;3.78;;;2.78;;
19593;SDS011;9944;48.240;16.478;2022-07-29T12:12:55;3.28;;;2.95;;
19593;SDS011;9944;48.240;16.478;2022-07-29T12:17:00;3.53;;;2.60;;
19593;SDS011;9944;48.240;16.478;2022-07-29T12:21:07;2.92;;;2.70;;
19593;SDS011;9944;48.240;16.478;2022-07-29T12:25:13;4.65;;;3.03;;
19593;SDS011;9944;48.240;16.478;2022-07-29T12:29:33;3.03;;;2.53;;
19593;SDS011;9944;48.240;16.478;2022-07-29T12:33:37;3.42;;;2.90;;
19593;SDS011;9944;48.240;16.478;2022-07-29T12:37:41;5.20;;;3.20;;
19593;SDS011;9944;48.240;16.478;2022-07-29T12:41:46;4.13;;;3.17;;
19593;SDS011;9944;48.240;16.478;2022-07-29T12:45:50;3.42;;;2.85;;
19593;SDS011;9944;48.240;16.478;2022-07-29T12:50:08;3.35;;;3.05;;
19593;SDS011;9944;48.240;16.478;2022-07-29T12:54:13;2.92;;;2.72;;
19593;SDS011;9944;48.240;16.478;2022-07-29T12:58:27;3.28;;;2.97;;
19593;SDS011;9944;48.240;16.478;2022-07-29T13:02:36;3.88;;;2.90;;
19593;SDS011;9944;48.240;16.478;2022-07-29T13:06:41;4.00;;;2.58;;
19593;SDS011;9944;48.240;16.478;2022-07-29T13:10:51;3.30;;;2.97;;
19593;SDS011;9944;48.240;16.478;2022-07-29T13:14:54;3.05;;;2.70;;
19593;SDS011;9944;48.240;16.478;2022-07-29T13:19:04;3.30;;;2.78;;
19593;SDS011;9944;48.240;16.478;2022-07-29T13:23:13;5.20;;;3.08;;
19593;SDS011;9944;48.240;16.478;2022-07-29T13:27:18;3.55;;;2.83;;
19593;SDS011;9944;48.240;16.478;2022-07-29T13:31:22;3.08;;;2.60;;
19593;SDS011;9944;48.240;16.478;2022-07-29T13:35:25;3.33;;;3.03;;
19593;SDS011;9944;48.240;16.478;2022-07-29T13:39:32;3.17;;;2.88;;
19593;SDS011;9944;48.240;16.478;2022-07-29T13:43:35;3.97;;;3.00;;
19593;SDS011;9944;48.240;16.478;2022-07-29T13:47:38;4.60;;;2.97;;
19593;SDS011;9944;48.240;16.478;2022-07-29T13:51:49;4.15;;;3.10;;
19593;SDS011;9944;48.240;16.478;2022-07-29T13:55:54;4.45;;;3.67;;
19593;SDS011;9944;48.240;16.478;2022-07-29T13:59:57;3.22;;;2.92;;
19593;SDS011;9944;48.240;16.478;2022-07-29T14:04:00;3.50;;;3.15;;
19593;SDS011;9944;48.240;16.478;2022-07-29T14:08:04;3.72;;;2.97;;
19593;SDS011;9944;48.240;16.478;2022-07-29T14:12:09;5.07;;;3.20;;
19593;SDS011;9944;48.240;16.478;2022-07-29T14:16:13;3.50;;;2.72;;
19593;SDS011;9944;48.240;16.478;2022-07-29T14:20:16;3.15;;;2.88;;
19593;SDS011;9944;48.240;16.478;2022-07-29T14:24:20;3.15;;;2.85;;
19593;SDS011;9944;48.240;16.478;2022-07-29T14:33:08;3.92;;;3.20;;
19593;SDS011;9944;48.240;16.478;2022-07-29T14:37:18;4.15;;;3.22;;
19593;SDS011;9944;48.240;16.478;2022-07-29T14:41:28;4.10;;;3.53;;
19593;SDS011;9944;48.240;16.478;2022-07-29T14:45:34;7.00;;;3.58;;
19593;SDS011;9944;48.240;16.478;2022-07-29T14:49:39;4.15;;;3.15;;
19593;SDS011;9944;48.240;16.478;2022-07-29T14:53:44;4.63;;;3.30;;
19593;SDS011;9944;48.240;16.478;2022-07-29T14:57:57;4.68;;;3.40;;
19593;SDS011;9944;48.240;16.478;2022-07-29T15:02:55;4.07;;;3.67;;
19593;SDS011;9944;48.240;16.478;2022-07-29T15:07:04;3.75;;;3.40;;
19593;SDS011;9944;48.240;16.478;2022-07-29T15:11:19;4.10;;;3.70;;
19593;SDS011;9944;48.240;16.478;2022-07-29T15:16:50;6.60;;;3.65;;
19593;SDS011;9944;48.240;16.478;2022-07-29T15:20:55;6.88;;;3.80;;
19593;SDS011;9944;48.240;16.478;2022-07-29T15:24:58;5.95;;;3.75;;
19593;SDS011;9944;48.240;16.478;2022-07-29T15:29:01;4.60;;;3.97;;
19593;SDS011;9944;48.240;16.478;2022-07-29T15:33:04;5.18;;;3.95;;
19593;SDS011;9944;48.240;16.478;2022-07-29T15:37:09;5.10;;;4.18;;
19593;SDS011;9944;48.240;16.478;2022-07-29T15:41:13;5.40;;;4.22;;
19593;SDS011;9944;48.240;16.478;2022-07-29T15:45:16;5.85;;;4.15;;
19593;SDS011;9944;48.240;16.478;2022-07-29T15:49:20;5.57;;;3.90;;
19593;SDS011;9944;48.240;16.478;2022-07-29T15:53:24;4.85;;;3.47;;
19593;SDS011;9944;48.240;16.478;2022-07-29T15:57:28;4.22;;;3.83;;
19593;SDS011;9944;48.240;16.478;2022-07-29T16:01:31;4.38;;;3.75;;
19593;SDS011;9944;48.240;16.478;2022-07-29T16:05:34;4.15;;;3.75;;
19593;SDS011;9944;48.240;16.478;2022-07-29T16:09:39;5.13;;;4.22;;
19593;SDS011;9944;48.240;16.478;2022-07-29T16:13:42;5.25;;;3.85;;
19593;SDS011;9944;48.240;16.478;2022-07-29T16:17:47;4.78;;;3.75;;
19593;SDS011;9944;48.240;16.478;2022-07-29T16:21:50;6.75;;;3.35;;
19593;SDS011;9944;48.240;16.478;2022-07-29T16:26:01;4.18;;;3.78;;
19593;SDS011;9944;48.240;16.478;2022-07-29T16:30:05;4.97;;;3.67;;
19593;SDS011;9944;48.240;16.478;2022-07-29T16:34:10;4.40;;;3.30;;
19593;SDS011;9944;48.240;16.478;2022-07-29T16:38:13;5.20;;;3.67;;
19593;SDS011;9944;48.240;16.478;2022-07-29T16:42:18;4.88;;;3.65;;
19593;SDS011;9944;48.240;16.478;2022-07-29T16:46:42;3.95;;;3.50;;
19593;SDS011;9944;48.240;16.478;2022-07-29T16:50:46;4.43;;;3.50;;
19593;SDS011;9944;48.240;16.478;2022-07-29T16:54:49;4.95;;;3.95;;
19593;SDS011;9944;48.240;16.478;2022-07-29T16:58:54;4.47;;;3.97;;
19593;SDS011;9944;48.240;16.478;2022-07-29T17:02:59;4.32;;;3.60;;
19593;SDS011;9944;48.240;16.478;2022-07-29T17:07:02;3.85;;;3.45;;
19593;SDS011;9944;48.240;16.478;2022-07-29T17:11:05;4.63;;;3.65;;
19593;SDS011;9944;48.240;16.478;2022-07-29T17:15:10;4.80;;;3.90;;
19593;SDS011;9944;48.240;16.478;2022-07-29T17:19:14;4.32;;;3.90;;
19593;SDS011;9944;48.240;16.478;2022-07-29T17:23:17;4.55;;;3.97;;
19593;SDS011;9944;48.240;16.478;2022-07-29T17:27:21;4.15;;;3.75;;
19593;SDS011;9944;48.240;16.478;2022-07-29T17:31:25;5.07;;;4.03;;
19593;SDS011;9944;48.240;16.478;2022-07-29T17:35:29;4.55;;;3.60;;
19593;SDS011;9944;48.240;16.478;2022-07-29T17:39:49;4.82;;;4.00;;
19593;SDS011;9944;48.240;16.478;2022-07-29T17:43:52;4.25;;;3.72;;
19593;SDS011;9944;48.240;16.478;2022-07-29T17:47:57;5.50;;;3.85;;
19593;SDS011;9944;48.240;16.478;2022-07-29T17:52:01;4.20;;;3.72;;
19593;SDS011;9944;48.240;16.478;2022-07-29T17:56:04;4.00;;;3.60;;
19593;SDS011;9944;48.240;16.478;2022-07-29T18:00:08;7.00;;;3.92;;
19593;SDS011;9944;48.240;16.478;2022-07-29T18:04:12;4.60;;;3.78;;
19593;SDS011;9944;48.240;16.478;2022-07-29T18:08:20;5.85;;;4.07;;
19593;SDS011;9944;48.240;16.478;2022-07-29T18:12:23;4.93;;;3.60;;
19593;SDS011;9944;48.240;16.478;2022-07-29T18:16:27;3.67;;;3.38;;
19593;SDS011;9944;48.240;16.478;2022-07-29T18:20:31;4.50;;;3.72;;
19593;SDS011;9944;48.240;16.478;2022-07-29T18:24:35;4.25;;;3.85;;
19593;SDS011;9944;48.240;16.478;2022-07-29T18:28:39;5.20;;;3.60;;
19593;SDS011;9944;48.240;16.478;2022-07-29T18:32:42;3.85;;;3.45;;
19593;SDS011;9944;48.240;16.478;2022-07-29T18:37:06;4.57;;;4.15;;
19593;SDS011;9944;48.240;16.478;2022-07-29T18:41:09;4.25;;;3.67;;
19593;SDS011;9944;48.240;16.478;2022-07-29T18:45:13;5.10;;;3.70;;
19593;SDS011;9944;48.240;16.478;2022-07-29T18:49:20;4.10;;;3.47;;
19593;SDS011;9944;48.240;16.478;2022-07-29T18:53:25;4.43;;;4.03;;
19593;SDS011;9944;48.240;16.478;2022-07-29T18:57:28;5.13;;;4.05;;
19593;SDS011;9944;48.240;16.478;2022-07-29T19:01:51;4.63;;;3.85;;
19593;SDS011;9944;48.240;16.478;2022-07-29T19:05:55;4.50;;;4.03;;
19593;SDS011;9944;48.240;16.478;2022-07-29T19:09:59;5.60;;;4.28;;
19593;SDS011;9944;48.240;16.478;2022-07-29T19:14:04;4.72;;;3.75;;
19593;SDS011;9944;48.240;16.478;2022-07-29T19:18:08;5.70;;;4.47;;
19593;SDS011;9944;48.240;16.478;2022-07-29T19:22:13;5.20;;;4.25;;
19593;SDS011;9944;48.240;16.478;2022-07-29T19:26:18;4.30;;;3.75;;
19593;SDS011;9944;48.240;16.478;2022-07-29T19:30:22;4.57;;;4.00;;
19593;SDS011;9944;48.240;16.478;2022-07-29T19:34:25;6.63;;;4.65;;
19593;SDS011;9944;48.240;16.478;2022-07-29T19:38:29;8.35;;;4.80;;
19593;SDS011;9944;48.240;16.478;2022-07-29T19:42:33;6.40;;;4.72;;
19593;SDS011;9944;48.240;16.478;2022-07-29T19:46:36;7.25;;;4.65;;
19593;SDS011;9944;48.240;16.478;2022-07-29T19:50:39;4.90;;;4.30;;
19593;SDS011;9944;48.240;16.478;2022-07-29T19:54:44;4.70;;;4.20;;
19593;SDS011;9944;48.240;16.478;2022-07-29T19:58:48;4.72;;;4.00;;
19593;SDS011;9944;48.240;16.478;2022-07-29T20:02:52;6.57;;;4.43;;
19593;SDS011;9944;48.240;16.478;2022-07-29T20:06:57;5.68;;;4.45;;
19593;SDS011;9944;48.240;16.478;2022-07-29T20:11:02;4.47;;;4.03;;
19593;SDS011;9944;48.240;16.478;2022-07-29T20:15:07;5.95;;;4.88;;
19593;SDS011;9944;48.240;16.478;2022-07-29T20:19:16;6.28;;;5.00;;
19593;SDS011;9944;48.240;16.478;2022-07-29T20:23:19;5.35;;;4.85;;
19593;SDS011;9944;48.240;16.478;2022-07-29T20:27:23;5.25;;;4.68;;
19593;SDS011;9944;48.240;16.478;2022-07-29T20:31:28;5.70;;;4.72;;
19593;SDS011;9944;48.240;16.478;2022-07-29T20:35:32;6.07;;;4.95;;
19593;SDS011;9944;48.240;16.478;2022-07-29T20:39:36;6.43;;;5.20;;
19593;SDS011;9944;48.240;16.478;2022-07-29T20:43:39;6.63;;;5.60;;
19593;SDS011;9944;48.240;16.478;2022-07-29T20:47:43;6.53;;;5.32;;
19593;SDS011;9944;48.240;16.478;2022-07-29T20:51:46;6.28;;;5.07;;
19593;SDS011;9944;48.240;16.478;2022-07-29T20:55:49;6.90;;;5.45;;
19593;SDS011;9944;48.240;16.478;2022-07-29T20:59:52;7.10;;;5.03;;
19593;SDS011;9944;48.240;16.478;2022-07-29T21:03:57;7.05;;;4.82;;
19593;SDS011;9944;48.240;16.478;2022-07-29T21:08:00;7.40;;;5.25;;
19593;SDS011;9944;48.240;16.478;2022-07-29T21:12:04;5.53;;;4.57;;
19593;SDS011;9944;48.240;16.478;2022-07-29T21:16:08;7.93;;;5.53;;
19593;SDS011;9944;48.240;16.478;2022-07-29T21:20:17;5.60;;;4.50;;
19593;SDS011;9944;48.240;16.478;2022-07-29T21:24:21;5.43;;;4.80;;
19593;SDS011;9944;48.240;16.478;2022-07-29T21:28:24;5.50;;;4.63;;
19593;SDS011;9944;48.240;16.478;2022-07-29T21:32:36;8.35;;;5.15;;
19593;SDS011;9944;48.240;16.478;2022-07-29T21:36:40;6.32;;;4.80;;
19593;SDS011;9944;48.240;16.478;2022-07-29T21:40:49;6.25;;;5.25;;
19593;SDS011;9944;48.240;16.478;2022-07-29T21:44:53;6.28;;;4.90;;
19593;SDS011;9944;48.240;16.478;2022-07-29T21:48:56;5.47;;;4.88;;
19593;SDS011;9944;48.240;16.478;2022-07-29T21:53:01;5.82;;;4.97;;
19593;SDS011;9944;48.240;16.478;2022-07-29T21:57:04;6.72;;;5.43;;
19593;SDS011;9944;48.240;16.478;2022-07-29T22:01:08;7.47;;;4.82;;
19593;SDS011;9944;48.240;16.478;2022-07-29T22:05:11;7.05;;;5.53;;
19593;SDS011;9944;48.240;16.478;2022-07-29T22:09:17;5.40;;;4.70;;
19593;SDS011;9944;48.240;16.478;2022-07-29T22:13:20;5.82;;;5.00;;
19593;SDS011;9944;48.240;16.478;2022-07-29T22:17:23;5.88;;;5.10;;
19593;SDS011;9944;48.240;16.478;2022-07-29T22:21:26;6.38;;;5.25;;
19593;SDS011;9944;48.240;16.478;2022-07-29T22:25:31;6.22;;;4.80;;
19593;SDS011;9944;48.240;16.478;2022-07-29T22:29:34;7.07;;;4.78;;
19593;SDS011;9944;48.240;16.478;2022-07-29T22:33:37;6.45;;;5.10;;
19593;SDS011;9944;48.240;16.478;2022-07-29T22:37:40;6.03;;;5.22;;
19593;SDS011;9944;48.240;16.478;2022-07-29T22:41:45;7.00;;;5.88;;
19593;SDS011;9944;48.240;16.478;2022-07-29T22:45:48;6.43;;;5.30;;
19593;SDS011;9944;48.240;16.478;2022-07-29T22:49:51;6.88;;;5.65;;
19593;SDS011;9944;48.240;16.478;2022-07-29T22:53:54;6.57;;;5.35;;
19593;SDS011;9944;48.240;16.478;2022-07-29T22:57:58;6.15;;;5.10;;
19593;SDS011;9944;48.240;16.478;2022-07-29T23:02:02;6.97;;;5.40;;
19593;SDS011;9944;48.240;16.478;2022-07-29T23:06:05;6.22;;;4.93;;
19593;SDS011;9944;48.240;16.478;2022-07-29T23:10:08;6.75;;;4.78;;
19593;SDS011;9944;48.240;16.478;2022-07-29T23:14:13;5.22;;;4.25;;
19593;SDS011;9944;48.240;16.478;2022-07-29T23:18:16;5.53;;;4.53;;
19593;SDS011;9944;48.240;16.478;2022-07-29T23:22:20;5.93;;;4.82;;
19593;SDS011;9944;48.240;16.478;2022-07-29T23:26:23;5.55;;;4.55;;
19593;SDS011;9944;48.240;16.478;2022-07-29T23:30:28;6.80;;;5.13;;
19593;SDS011;9944;48.240;16.478;2022-07-29T23:34:31;8.90;;;4.40;;
19593;SDS011;9944;48.240;16.478;2022-07-29T23:38:37;5.57;;;4.75;;
19593;SDS011;9944;48.240;16.478;2022-07-29T23:42:41;5.88;;;4.78;;
19593;SDS011;9944;48.240;16.478;2022-07-29T23:46:46;5.47;;;4.53;;
19593;SDS011;9944;48.240;16.478;2022-07-29T23:50:49;6.35;;;4.90;;
19593;SDS011;9944;48.240;16.478;2022-07-29T23:54:52;5.78;;;4.75;;
19593;SDS011;9944;48.240;16.478;2022-07-29T23:59:15;5.50;;;4.35;;
